sensor_id;sensor_type;location;lat;lon;timestamp;pressure;altitude;pressure_sealevel;temperature;humidity
77235;BME280;66253;50.526;14.974;2024-03-23T00:54:54;98358.10;;;10.17;84.29
77235;BME280;66253;50.526;14.974;2024-03-23T00:57:23;98356.35;;;10.12;84.87
77235;BME280;66253;50.526;14.974;2024-03-23T00:59:51;98350.45;;;10.11;84.85
77235;BME280;66253;50.526;14.974;2024-03-23T01:02:20;98346.02;;;10.11;85.07
77235;BME280;66253;50.526;14.974;2024-03-23T01:04:54;98346.04;;;10.11;84.79
77235;BME280;66253;50.526;14.974;2024-03-23T01:07:22;98340.34;;;10.11;84.99
77235;BME280;66253;50.526;14.974;2024-03-23T01:09:51;98345.05;;;10.13;84.66
77235;BME280;66253;50.526;14.974;2024-03-23T01:12:20;98344.81;;;10.14;84.82
77235;BME280;66253;50.526;14.974;2024-03-23T01:14:48;98342.27;;;10.14;84.46
77235;BME280;66253;50.526;14.974;2024-03-23T01:17:17;98337.29;;;10.14;84.33
77235;BME280;66253;50.526;14.974;2024-03-23T01:19:45;98336.98;;;10.16;84.70
77235;BME280;66253;50.526;14.974;2024-03-23T01:22:14;98335.96;;;10.18;85.02
77235;BME280;66253;50.526;14.974;2024-03-23T01:24:43;98329.05;;;10.17;84.96
77235;BME280;66253;50.526;14.974;2024-03-23T01:27:12;98323.39;;;10.18;84.64
77235;BME280;66253;50.526;14.974;2024-03-23T01:29:40;98318.35;;;10.11;84.79
77235;BME280;66253;50.526;14.974;2024-03-23T01:32:09;98321.35;;;10.07;84.81
77235;BME280;66253;50.526;14.974;2024-03-23T01:34:38;98318.38;;;10.06;84.52
77235;BME280;66253;50.526;14.974;2024-03-23T01:37:06;98308.58;;;10.05;84.93
77235;BME280;66253;50.526;14.974;2024-03-23T01:39:35;98305.73;;;9.99;84.93
77235;BME280;66253;50.526;14.974;2024-03-23T01:42:04;98308.04;;;9.95;84.73
77235;BME280;66253;50.526;14.974;2024-03-23T01:44:33;98306.46;;;9.93;84.94
77235;BME280;66253;50.526;14.974;2024-03-23T01:47:02;98300.51;;;9.90;85.04
77235;BME280;66253;50.526;14.974;2024-03-23T01:49:30;98293.40;;;9.89;85.02
77235;BME280;66253;50.526;14.974;2024-03-23T01:51:59;98291.47;;;9.88;85.05
77235;BME280;66253;50.526;14.974;2024-03-23T01:54:28;98288.97;;;9.87;84.90
77235;BME280;66253;50.526;14.974;2024-03-23T01:56:56;98274.00;;;9.84;85.27
77235;BME280;66253;50.526;14.974;2024-03-23T01:59:27;98268.16;;;9.82;85.61
77235;BME280;66253;50.526;14.974;2024-03-23T02:01:55;98267.77;;;9.80;85.35
77235;BME280;66253;50.526;14.974;2024-03-23T02:04:24;98264.02;;;9.77;85.44
77235;BME280;66253;50.526;14.974;2024-03-23T02:06:53;98258.96;;;9.77;85.44
77235;BME280;66253;50.526;14.974;2024-03-23T02:09:22;98259.99;;;9.76;85.01
77235;BME280;66253;50.526;14.974;2024-03-23T02:11:53;98268.69;;;9.74;85.41
77235;BME280;66253;50.526;14.974;2024-03-23T02:14:22;98267.06;;;9.71;85.13
77235;BME280;66253;50.526;14.974;2024-03-23T02:16:51;98265.40;;;9.67;85.21
77235;BME280;66253;50.526;14.974;2024-03-23T02:19:22;98260.48;;;9.64;85.16
77235;BME280;66253;50.526;14.974;2024-03-23T02:21:51;98260.27;;;9.59;85.09
77235;BME280;66253;50.526;14.974;2024-03-23T02:24:20;98258.73;;;9.57;84.69
77235;BME280;66253;50.526;14.974;2024-03-23T02:26:48;98254.42;;;9.55;84.66
77235;BME280;66253;50.526;14.974;2024-03-23T02:29:17;98248.66;;;9.53;84.57
77235;BME280;66253;50.526;14.974;2024-03-23T02:31:46;98244.16;;;9.49;84.41
77235;BME280;66253;50.526;14.974;2024-03-23T02:34:14;98240.23;;;9.46;84.36
77235;BME280;66253;50.526;14.974;2024-03-23T02:36:43;98236.27;;;9.42;84.70
77235;BME280;66253;50.526;14.974;2024-03-23T02:39:12;98229.14;;;9.36;84.56
77235;BME280;66253;50.526;14.974;2024-03-23T02:41:40;98227.41;;;9.31;84.25
77235;BME280;66253;50.526;14.974;2024-03-23T02:44:09;98222.30;;;9.23;84.03
77235;BME280;66253;50.526;14.974;2024-03-23T02:46:37;98215.07;;;9.17;83.71
77235;BME280;66253;50.526;14.974;2024-03-23T02:49:06;98214.91;;;9.12;84.32
77235;BME280;66253;50.526;14.974;2024-03-23T02:51:36;98204.03;;;9.06;84.02
77235;BME280;66253;50.526;14.974;2024-03-23T02:54:03;98195.36;;;9.01;83.71
77235;BME280;66253;50.526;14.974;2024-03-23T02:56:33;98193.65;;;8.98;84.05
77235;BME280;66253;50.526;14.974;2024-03-23T02:59:02;98189.09;;;8.95;83.93
77235;BME280;66253;50.526;14.974;2024-03-23T03:01:31;98187.52;;;8.90;83.89
77235;BME280;66253;50.526;14.974;2024-03-23T03:03:59;98181.73;;;8.85;83.68
77235;BME280;66253;50.526;14.974;2024-03-23T03:06:29;98179.02;;;8.80;83.63
77235;BME280;66253;50.526;14.974;2024-03-23T03:08:59;98182.81;;;8.74;83.81
77235;BME280;66253;50.526;14.974;2024-03-23T03:11:31;98176.59;;;8.67;83.84
77235;BME280;66253;50.526;14.974;2024-03-23T03:14:02;98176.14;;;8.61;83.85
77235;BME280;66253;50.526;14.974;2024-03-23T03:16:34;98176.61;;;8.57;84.26
77235;BME280;66253;50.526;14.974;2024-03-23T03:19:02;98175.74;;;8.54;84.08
77235;BME280;66253;50.526;14.974;2024-03-23T03:21:31;98178.34;;;8.51;84.15
77235;BME280;66253;50.526;14.974;2024-03-23T03:24:00;98171.88;;;8.48;84.51
77235;BME280;66253;50.526;14.974;2024-03-23T03:26:28;98172.36;;;8.46;84.12
77235;BME280;66253;50.526;14.974;2024-03-23T03:28:57;98168.41;;;8.44;84.61
77235;BME280;66253;50.526;14.974;2024-03-23T03:31:26;98164.73;;;8.43;84.19
77235;BME280;66253;50.526;14.974;2024-03-23T03:33:54;98165.42;;;8.40;84.08
77235;BME280;66253;50.526;14.974;2024-03-23T03:36:22;98158.41;;;8.37;84.29
77235;BME280;66253;50.526;14.974;2024-03-23T03:39:00;98156.96;;;8.34;84.29
77235;BME280;66253;50.526;14.974;2024-03-23T03:41:30;98157.01;;;8.33;84.06
77235;BME280;66253;50.526;14.974;2024-03-23T03:44:02;98152.75;;;8.30;84.00
77235;BME280;66253;50.526;14.974;2024-03-23T03:46:30;98154.59;;;8.28;84.38
77235;BME280;66253;50.526;14.974;2024-03-23T03:49:04;98150.10;;;8.24;84.38
77235;BME280;66253;50.526;14.974;2024-03-23T03:51:33;98146.60;;;8.17;84.47
77235;BME280;66253;50.526;14.974;2024-03-23T03:54:02;98147.36;;;8.13;84.13
77235;BME280;66253;50.526;14.974;2024-03-23T03:56:30;98144.94;;;8.11;84.41
77235;BME280;66253;50.526;14.974;2024-03-23T03:58:59;98139.86;;;8.08;84.34
77235;BME280;66253;50.526;14.974;2024-03-23T04:01:27;98146.17;;;8.05;84.51
77235;BME280;66253;50.526;14.974;2024-03-23T04:03:59;98143.92;;;8.00;84.38
77235;BME280;66253;50.526;14.974;2024-03-23T04:06:28;98133.98;;;7.96;84.65
77235;BME280;66253;50.526;14.974;2024-03-23T04:08:56;98135.27;;;7.92;84.53
77235;BME280;66253;50.526;14.974;2024-03-23T04:11:25;98129.10;;;7.87;84.48
77235;BME280;66253;50.526;14.974;2024-03-23T04:13:53;98125.14;;;7.80;84.36
77235;BME280;66253;50.526;14.974;2024-03-23T04:16:33;98122.55;;;7.74;84.67
77235;BME280;66253;50.526;14.974;2024-03-23T04:19:02;98116.74;;;7.70;84.64
77235;BME280;66253;50.526;14.974;2024-03-23T04:21:30;98109.91;;;7.67;84.65
77235;BME280;66253;50.526;14.974;2024-03-23T04:23:59;98099.01;;;7.63;84.66
77235;BME280;66253;50.526;14.974;2024-03-23T04:26:28;98101.30;;;7.58;84.68
77235;BME280;66253;50.526;14.974;2024-03-23T04:28:57;98108.91;;;7.56;84.78
77235;BME280;66253;50.526;14.974;2024-03-23T04:31:26;98110.09;;;7.53;84.89
77235;BME280;66253;50.526;14.974;2024-03-23T04:33:54;98108.27;;;7.50;85.10
77235;BME280;66253;50.526;14.974;2024-03-23T04:36:23;98107.42;;;7.50;84.85
77235;BME280;66253;50.526;14.974;2024-03-23T04:38:53;98106.79;;;7.49;84.86
77235;BME280;66253;50.526;14.974;2024-03-23T04:41:22;98103.55;;;7.49;85.29
77235;BME280;66253;50.526;14.974;2024-03-23T04:43:50;98099.15;;;7.49;85.50
77235;BME280;66253;50.526;14.974;2024-03-23T04:46:19;98098.23;;;7.50;85.45
77235;BME280;66253;50.526;14.974;2024-03-23T04:48:48;98094.27;;;7.51;85.69
77235;BME280;66253;50.526;14.974;2024-03-23T04:51:25;98089.38;;;7.50;85.77
77235;BME280;66253;50.526;14.974;2024-03-23T04:53:54;98080.77;;;7.49;86.03
77235;BME280;66253;50.526;14.974;2024-03-23T04:56:22;98077.30;;;7.50;86.01
77235;BME280;66253;50.526;14.974;2024-03-23T04:58:51;98074.45;;;7.50;85.86
77235;BME280;66253;50.526;14.974;2024-03-23T05:01:20;98077.79;;;7.48;86.28
77235;BME280;66253;50.526;14.974;2024-03-23T05:03:49;98075.15;;;7.47;86.15
77235;BME280;66253;50.526;14.974;2024-03-23T05:06:17;98067.92;;;7.46;86.04
77235;BME280;66253;50.526;14.974;2024-03-23T05:08:46;98065.47;;;7.44;86.14
77235;BME280;66253;50.526;14.974;2024-03-23T05:11:15;98070.48;;;7.45;86.44
77235;BME280;66253;50.526;14.974;2024-03-23T05:13:43;98066.44;;;7.45;86.33
77235;BME280;66253;50.526;14.974;2024-03-23T05:16:21;98064.41;;;7.48;86.81
77235;BME280;66253;50.526;14.974;2024-03-23T05:18:52;98064.23;;;7.50;86.92
77235;BME280;66253;50.526;14.974;2024-03-23T05:21:21;98060.77;;;7.51;87.02
77235;BME280;66253;50.526;14.974;2024-03-23T05:23:49;98062.45;;;7.52;87.29
77235;BME280;66253;50.526;14.974;2024-03-23T05:26:18;98065.52;;;7.55;87.37
77235;BME280;66253;50.526;14.974;2024-03-23T05:28:46;98060.09;;;7.54;87.41
77235;BME280;66253;50.526;14.974;2024-03-23T05:31:24;98057.10;;;7.56;87.51
77235;BME280;66253;50.526;14.974;2024-03-23T05:33:53;98050.14;;;7.59;87.83
77235;BME280;66253;50.526;14.974;2024-03-23T05:36:21;98040.31;;;7.61;88.31
77235;BME280;66253;50.526;14.974;2024-03-23T05:38:50;98042.42;;;7.63;88.29
77235;BME280;66253;50.526;14.974;2024-03-23T05:41:22;98036.98;;;7.65;88.24
77235;BME280;66253;50.526;14.974;2024-03-23T05:43:51;98029.53;;;7.67;88.45
77235;BME280;66253;50.526;14.974;2024-03-23T05:46:19;98019.64;;;7.70;88.43
77235;BME280;66253;50.526;14.974;2024-03-23T05:48:48;98014.52;;;7.74;88.69
77235;BME280;66253;50.526;14.974;2024-03-23T05:51:18;98010.75;;;7.76;88.50
77235;BME280;66253;50.526;14.974;2024-03-23T05:53:46;98005.73;;;7.78;88.66
77235;BME280;66253;50.526;14.974;2024-03-23T05:56:15;98001.67;;;7.81;88.34
77235;BME280;66253;50.526;14.974;2024-03-23T05:58:48;97998.36;;;7.85;88.35
77235;BME280;66253;50.526;14.974;2024-03-23T06:01:16;97987.98;;;7.88;88.45
77235;BME280;66253;50.526;14.974;2024-03-23T06:03:45;97982.19;;;7.90;88.68
77235;BME280;66253;50.526;14.974;2024-03-23T06:06:14;97983.49;;;7.93;89.17
77235;BME280;66253;50.526;14.974;2024-03-23T06:08:45;97988.19;;;7.97;88.93
77235;BME280;66253;50.526;14.974;2024-03-23T06:11:14;97987.84;;;8.00;89.19
77235;BME280;66253;50.526;14.974;2024-03-23T06:13:43;97986.30;;;8.03;88.77
77235;BME280;66253;50.526;14.974;2024-03-23T06:16:12;97972.91;;;8.05;89.13
77235;BME280;66253;50.526;14.974;2024-03-23T06:18:42;97964.92;;;8.05;89.00
77235;BME280;66253;50.526;14.974;2024-03-23T06:21:15;97965.80;;;8.07;89.49
77235;BME280;66253;50.526;14.974;2024-03-23T06:23:44;97966.51;;;8.09;89.22
77235;BME280;66253;50.526;14.974;2024-03-23T06:26:13;97965.23;;;8.10;89.55
77235;BME280;66253;50.526;14.974;2024-03-23T06:28:42;97962.83;;;8.13;89.28
77235;BME280;66253;50.526;14.974;2024-03-23T06:31:12;97966.30;;;8.17;89.46
77235;BME280;66253;50.526;14.974;2024-03-23T06:33:43;97957.40;;;8.20;89.50
77235;BME280;66253;50.526;14.974;2024-03-23T06:36:12;97953.28;;;8.26;89.39
77235;BME280;66253;50.526;14.974;2024-03-23T06:38:41;97948.58;;;8.31;89.51
77235;BME280;66253;50.526;14.974;2024-03-23T06:41:12;97945.98;;;8.36;89.21
77235;BME280;66253;50.526;14.974;2024-03-23T06:43:41;97940.06;;;8.41;88.91
77235;BME280;66253;50.526;14.974;2024-03-23T06:46:09;97946.35;;;8.47;88.86
77235;BME280;66253;50.526;14.974;2024-03-23T06:48:38;97946.60;;;8.50;88.41
77235;BME280;66253;50.526;14.974;2024-03-23T06:51:12;97936.48;;;8.54;89.08
77235;BME280;66253;50.526;14.974;2024-03-23T06:53:45;97932.46;;;8.55;88.88
77235;BME280;66253;50.526;14.974;2024-03-23T06:56:14;97924.63;;;8.60;88.49
77235;BME280;66253;50.526;14.974;2024-03-23T06:58:43;97904.77;;;8.65;88.82
77235;BME280;66253;50.526;14.974;2024-03-23T07:01:11;97898.21;;;8.66;88.69
77235;BME280;66253;50.526;14.974;2024-03-23T07:03:40;97891.70;;;8.69;88.99
77235;BME280;66253;50.526;14.974;2024-03-23T07:06:12;97891.69;;;8.74;89.71
77235;BME280;66253;50.526;14.974;2024-03-23T07:08:40;97891.39;;;8.81;89.90
77235;BME280;66253;50.526;14.974;2024-03-23T07:11:09;97905.73;;;8.87;89.38
77235;BME280;66253;50.526;14.974;2024-03-23T07:13:38;97921.53;;;8.93;89.43
77235;BME280;66253;50.526;14.974;2024-03-23T07:16:06;97937.73;;;8.98;88.86
77235;BME280;66253;50.526;14.974;2024-03-23T07:18:35;97947.31;;;9.02;88.77
77235;BME280;66253;50.526;14.974;2024-03-23T07:21:05;97941.70;;;9.04;89.10
77235;BME280;66253;50.526;14.974;2024-03-23T07:23:34;97920.53;;;9.05;89.48
77235;BME280;66253;50.526;14.974;2024-03-23T07:26:05;97899.46;;;9.07;89.71
77235;BME280;66253;50.526;14.974;2024-03-23T07:28:33;97891.98;;;9.09;89.84
77235;BME280;66253;50.526;14.974;2024-03-23T07:31:07;97879.54;;;9.11;89.97
77235;BME280;66253;50.526;14.974;2024-03-23T07:33:36;97881.17;;;9.14;90.33
77235;BME280;66253;50.526;14.974;2024-03-23T07:36:07;97864.59;;;9.15;90.69
77235;BME280;66253;50.526;14.974;2024-03-23T07:38:36;97856.69;;;9.12;90.37
77235;BME280;66253;50.526;14.974;2024-03-23T07:41:11;97844.75;;;9.12;90.84
77235;BME280;66253;50.526;14.974;2024-03-23T07:43:40;97825.23;;;9.15;91.20
77235;BME280;66253;50.526;14.974;2024-03-23T07:46:09;97823.01;;;9.25;91.34
77235;BME280;66253;50.526;14.974;2024-03-23T07:48:37;97818.59;;;9.39;91.47
77235;BME280;66253;50.526;14.974;2024-03-23T07:51:07;97809.57;;;9.57;91.65
77235;BME280;66253;50.526;14.974;2024-03-23T07:53:37;97793.93;;;9.77;92.50
77235;BME280;66253;50.526;14.974;2024-03-23T07:56:07;97781.38;;;9.92;92.04
77235;BME280;66253;50.526;14.974;2024-03-23T07:58:36;97779.39;;;10.07;91.61
77235;BME280;66253;50.526;14.974;2024-03-23T08:01:09;97777.91;;;10.26;91.57
77235;BME280;66253;50.526;14.974;2024-03-23T08:03:38;97774.64;;;10.49;91.53
77235;BME280;66253;50.526;14.974;2024-03-23T08:06:11;97762.73;;;10.76;90.70
77235;BME280;66253;50.526;14.974;2024-03-23T08:08:41;97761.65;;;11.05;90.16
77235;BME280;66253;50.526;14.974;2024-03-23T08:11:10;97761.46;;;11.34;90.74
77235;BME280;66253;50.526;14.974;2024-03-23T08:13:40;97766.58;;;11.63;89.78
77235;BME280;66253;50.526;14.974;2024-03-23T08:16:09;97755.46;;;11.88;87.62
77235;BME280;66253;50.526;14.974;2024-03-23T08:18:38;97746.38;;;12.06;86.44
77235;BME280;66253;50.526;14.974;2024-03-23T08:21:10;97738.46;;;12.25;86.10
77235;BME280;66253;50.526;14.974;2024-03-23T08:23:39;97728.77;;;12.48;85.36
77235;BME280;66253;50.526;14.974;2024-03-23T08:26:09;97722.88;;;12.67;84.03
77235;BME280;66253;50.526;14.974;2024-03-23T08:28:38;97727.00;;;12.85;83.28
77235;BME280;66253;50.526;14.974;2024-03-23T08:31:08;97723.61;;;13.00;82.28
77235;BME280;66253;50.526;14.974;2024-03-23T08:33:37;97729.40;;;13.08;80.42
77235;BME280;66253;50.526;14.974;2024-03-23T08:36:08;97734.42;;;13.15;80.30
77235;BME280;66253;50.526;14.974;2024-03-23T08:38:37;97739.40;;;13.23;79.64
77235;BME280;66253;50.526;14.974;2024-03-23T08:41:07;97735.60;;;13.29;78.79
77235;BME280;66253;50.526;14.974;2024-03-23T08:43:37;97733.21;;;13.34;78.71
77235;BME280;66253;50.526;14.974;2024-03-23T08:46:07;97729.85;;;13.39;78.25
77235;BME280;66253;50.526;14.974;2024-03-23T08:48:38;97722.86;;;13.44;77.50
77235;BME280;66253;50.526;14.974;2024-03-23T08:51:07;97723.37;;;13.50;77.31
77235;BME280;66253;50.526;14.974;2024-03-23T08:53:37;97717.88;;;13.58;77.09
77235;BME280;66253;50.526;14.974;2024-03-23T08:56:09;97711.00;;;13.72;77.96
77235;BME280;66253;50.526;14.974;2024-03-23T08:58:38;97707.08;;;13.91;77.95
77235;BME280;66253;50.526;14.974;2024-03-23T09:01:07;97700.48;;;14.10;77.46
77235;BME280;66253;50.526;14.974;2024-03-23T09:03:35;97691.61;;;14.27;76.92
77235;BME280;66253;50.526;14.974;2024-03-23T09:06:08;97696.13;;;14.47;75.23
77235;BME280;66253;50.526;14.974;2024-03-23T09:08:37;97698.52;;;14.61;75.46
77235;BME280;66253;50.526;14.974;2024-03-23T09:11:11;97692.48;;;14.75;74.60
77235;BME280;66253;50.526;14.974;2024-03-23T09:13:40;97683.16;;;14.90;74.55
77235;BME280;66253;50.526;14.974;2024-03-23T09:16:08;97681.55;;;14.98;72.94
77235;BME280;66253;50.526;14.974;2024-03-23T09:18:38;97682.80;;;15.00;73.09
77235;BME280;66253;50.526;14.974;2024-03-23T09:21:12;97680.58;;;15.02;72.59
77235;BME280;66253;50.526;14.974;2024-03-23T09:23:41;97674.59;;;15.06;72.17
77235;BME280;66253;50.526;14.974;2024-03-23T09:26:11;97666.44;;;15.10;71.86
77235;BME280;66253;50.526;14.974;2024-03-23T09:28:39;97664.73;;;15.16;71.74
77235;BME280;66253;50.526;14.974;2024-03-23T09:31:09;97662.20;;;15.23;70.89
77235;BME280;66253;50.526;14.974;2024-03-23T09:33:37;97656.95;;;15.29;71.59
77235;BME280;66253;50.526;14.974;2024-03-23T09:36:07;97656.16;;;15.35;70.82
77235;BME280;66253;50.526;14.974;2024-03-23T09:38:37;97657.98;;;15.41;70.86
77235;BME280;66253;50.526;14.974;2024-03-23T09:41:09;97650.38;;;15.46;70.29
77235;BME280;66253;50.526;14.974;2024-03-23T09:43:38;97652.35;;;15.56;70.58
77235;BME280;66253;50.526;14.974;2024-03-23T09:46:08;97656.29;;;15.66;70.71
77235;BME280;66253;50.526;14.974;2024-03-23T09:48:37;97648.05;;;15.73;70.33
77235;BME280;66253;50.526;14.974;2024-03-23T09:51:06;97643.07;;;15.80;70.45
77235;BME280;66253;50.526;14.974;2024-03-23T09:53:36;97657.58;;;15.84;70.24
77235;BME280;66253;50.526;14.974;2024-03-23T09:56:08;97654.63;;;15.86;69.77
77235;BME280;66253;50.526;14.974;2024-03-23T09:58:36;97652.77;;;15.84;69.66
77235;BME280;66253;50.526;14.974;2024-03-23T10:01:05;97655.86;;;15.81;69.42
77235;BME280;66253;50.526;14.974;2024-03-23T10:03:43;97655.33;;;15.73;69.03
77235;BME280;66253;50.526;14.974;2024-03-23T10:06:12;97657.68;;;15.64;69.83
77235;BME280;66253;50.526;14.974;2024-03-23T10:08:40;97654.71;;;15.58;70.27
77235;BME280;66253;50.526;14.974;2024-03-23T10:11:16;97654.91;;;15.51;70.77
77235;BME280;66253;50.526;14.974;2024-03-23T10:13:45;97647.95;;;15.38;71.24
77235;BME280;66253;50.526;14.974;2024-03-23T10:16:22;97653.77;;;15.26;71.78
77235;BME280;66253;50.526;14.974;2024-03-23T10:18:51;97653.79;;;15.11;71.61
77235;BME280;66253;50.526;14.974;2024-03-23T10:21:20;97648.06;;;14.92;71.13
77235;BME280;66253;50.526;14.974;2024-03-23T10:23:48;97635.86;;;14.80;71.78
77235;BME280;66253;50.526;14.974;2024-03-23T10:26:19;97612.13;;;14.73;72.51
77235;BME280;66253;50.526;14.974;2024-03-23T10:28:55;97642.96;;;14.69;73.60
77235;BME280;66253;50.526;14.974;2024-03-23T10:31:24;97659.72;;;14.61;74.02
77235;BME280;66253;50.526;14.974;2024-03-23T10:33:53;97667.58;;;14.52;73.97
77235;BME280;66253;50.526;14.974;2024-03-23T10:36:22;97676.08;;;14.39;73.84
77235;BME280;66253;50.526;14.974;2024-03-23T10:38:52;97685.15;;;14.21;74.06
77235;BME280;66253;50.526;14.974;2024-03-23T10:41:24;97684.73;;;14.04;73.24
77235;BME280;66253;50.526;14.974;2024-03-23T10:43:55;97684.73;;;13.91;73.62
77235;BME280;66253;50.526;14.974;2024-03-23T10:46:28;97687.23;;;13.81;73.50
77235;BME280;66253;50.526;14.974;2024-03-23T10:48:56;97684.61;;;13.70;72.93
77235;BME280;66253;50.526;14.974;2024-03-23T10:51:25;97684.06;;;13.65;73.40
77235;BME280;66253;50.526;14.974;2024-03-23T10:53:54;97682.92;;;13.61;73.23
77235;BME280;66253;50.526;14.974;2024-03-23T10:56:24;97690.84;;;13.57;72.76
77235;BME280;66253;50.526;14.974;2024-03-23T10:58:52;97695.22;;;13.54;73.29
77235;BME280;66253;50.526;14.974;2024-03-23T11:01:21;97700.10;;;13.52;73.69
77235;BME280;66253;50.526;14.974;2024-03-23T11:03:51;97712.45;;;13.49;73.27
77235;BME280;66253;50.526;14.974;2024-03-23T11:06:37;97713.88;;;13.45;72.49
77235;BME280;66253;50.526;14.974;2024-03-23T11:09:41;97711.70;;;13.39;72.02
77235;BME280;66253;50.526;14.974;2024-03-23T11:12:26;97712.48;;;13.29;72.17
77235;BME280;66253;50.526;14.974;2024-03-23T11:14:57;97721.25;;;13.21;72.29
77235;BME280;66253;50.526;14.974;2024-03-23T11:17:27;97722.10;;;13.14;73.14
77235;BME280;66253;50.526;14.974;2024-03-23T11:19:56;97723.31;;;13.09;72.81
77235;BME280;66253;50.526;14.974;2024-03-23T11:22:47;97723.42;;;13.04;73.02
77235;BME280;66253;50.526;14.974;2024-03-23T11:25:16;97726.52;;;12.98;73.82
77235;BME280;66253;50.526;14.974;2024-03-23T11:27:46;97727.27;;;12.93;74.08
77235;BME280;66253;50.526;14.974;2024-03-23T11:30:16;97723.50;;;12.87;74.40
77235;BME280;66253;50.526;14.974;2024-03-23T11:32:46;97729.55;;;12.87;75.02
77235;BME280;66253;50.526;14.974;2024-03-23T11:35:28;97740.78;;;12.88;75.32
77235;BME280;66253;50.526;14.974;2024-03-23T11:38:09;97738.27;;;12.89;75.80
77235;BME280;66253;50.526;14.974;2024-03-23T11:40:39;97737.83;;;12.96;75.91
77235;BME280;66253;50.526;14.974;2024-03-23T11:43:06;97743.31;;;13.04;76.10
77235;BME280;66253;50.526;14.974;2024-03-23T11:45:42;97740.30;;;13.11;76.23
77235;BME280;66253;50.526;14.974;2024-03-23T11:48:12;97737.02;;;13.14;75.99
77235;BME280;66253;50.526;14.974;2024-03-23T11:50:41;97751.16;;;13.12;74.93
77235;BME280;66253;50.526;14.974;2024-03-23T11:53:11;97761.23;;;13.07;70.81
77235;BME280;66253;50.526;14.974;2024-03-23T11:55:47;97764.84;;;12.99;70.61
77235;BME280;66253;50.526;14.974;2024-03-23T11:58:16;97773.71;;;12.93;69.70
77235;BME280;66253;50.526;14.974;2024-03-23T12:00:51;97775.77;;;12.89;70.21
77235;BME280;66253;50.526;14.974;2024-03-23T12:03:20;97786.05;;;12.87;70.89
77235;BME280;66253;50.526;14.974;2024-03-23T12:05:51;97788.13;;;12.87;70.53
77235;BME280;66253;50.526;14.974;2024-03-23T12:08:24;97802.14;;;12.84;69.50
77235;BME280;66253;50.526;14.974;2024-03-23T12:11:04;97822.12;;;12.73;68.80
77235;BME280;66253;50.526;14.974;2024-03-23T12:13:33;97852.19;;;12.62;68.89
77235;BME280;66253;50.526;14.974;2024-03-23T12:16:15;97872.11;;;12.50;67.81
77235;BME280;66253;50.526;14.974;2024-03-23T12:18:44;97882.48;;;12.30;66.61
77235;BME280;66253;50.526;14.974;2024-03-23T12:21:13;97896.03;;;12.13;65.83
77235;BME280;66253;50.526;14.974;2024-03-23T12:23:42;97890.87;;;11.97;65.90
77235;BME280;66253;50.526;14.974;2024-03-23T12:26:11;97897.90;;;11.87;66.42
77235;BME280;66253;50.526;14.974;2024-03-23T12:28:40;97907.58;;;11.75;65.01
77235;BME280;66253;50.526;14.974;2024-03-23T12:31:08;97911.61;;;11.63;64.43
77235;BME280;66253;50.526;14.974;2024-03-23T12:33:37;97926.96;;;11.53;64.38
77235;BME280;66253;50.526;14.974;2024-03-23T12:36:06;97940.90;;;11.47;64.61
77235;BME280;66253;50.526;14.974;2024-03-23T12:38:36;97944.89;;;11.45;64.14
77235;BME280;66253;50.526;14.974;2024-03-23T12:41:04;97944.11;;;11.42;63.94
77235;BME280;66253;50.526;14.974;2024-03-23T12:43:36;97940.93;;;11.38;63.32
77235;BME280;66253;50.526;14.974;2024-03-23T12:46:09;97941.30;;;11.32;63.80
77235;BME280;66253;50.526;14.974;2024-03-23T12:48:38;97953.14;;;11.31;64.20
77235;BME280;66253;50.526;14.974;2024-03-23T12:51:06;97947.77;;;11.32;64.94
77235;BME280;66253;50.526;14.974;2024-03-23T12:53:35;97949.48;;;11.30;63.75
77235;BME280;66253;50.526;14.974;2024-03-23T12:56:05;97959.58;;;11.23;63.43
77235;BME280;66253;50.526;14.974;2024-03-23T12:58:33;97974.77;;;11.19;63.19
77235;BME280;66253;50.526;14.974;2024-03-23T13:01:03;97981.39;;;11.18;63.84
77235;BME280;66253;50.526;14.974;2024-03-23T13:03:31;97986.91;;;11.15;63.10
77235;BME280;66253;50.526;14.974;2024-03-23T13:06:00;97988.50;;;11.07;62.44
77235;BME280;66253;50.526;14.974;2024-03-23T13:08:32;97995.63;;;10.97;62.68
77235;BME280;66253;50.526;14.974;2024-03-23T13:11:01;98013.61;;;10.90;62.76
77235;BME280;66253;50.526;14.974;2024-03-23T13:13:32;98040.66;;;10.84;62.18
77235;BME280;66253;50.526;14.974;2024-03-23T13:16:02;98054.12;;;10.74;62.74
77235;BME280;66253;50.526;14.974;2024-03-23T13:18:31;98062.89;;;10.64;62.34
77235;BME280;66253;50.526;14.974;2024-03-23T13:21:03;98067.31;;;10.52;62.83
77235;BME280;66253;50.526;14.974;2024-03-23T13:23:32;98078.02;;;10.42;63.37
77235;BME280;66253;50.526;14.974;2024-03-23T13:26:01;98085.05;;;10.31;63.23
77235;BME280;66253;50.526;14.974;2024-03-23T13:28:29;98110.05;;;10.18;63.45
77235;BME280;66253;50.526;14.974;2024-03-23T13:30:58;98108.98;;;10.04;63.35
77235;BME280;66253;50.526;14.974;2024-03-23T13:33:26;98120.36;;;9.93;64.23
77235;BME280;66253;50.526;14.974;2024-03-23T13:35:55;98129.92;;;9.88;64.82
77235;BME280;66253;50.526;14.974;2024-03-23T13:38:24;98131.34;;;9.85;64.80
77235;BME280;66253;50.526;14.974;2024-03-23T13:40:54;98134.77;;;9.82;65.04
77235;BME280;66253;50.526;14.974;2024-03-23T13:43:24;98138.66;;;9.78;64.93
77235;BME280;66253;50.526;14.974;2024-03-23T13:45:55;98142.84;;;9.74;64.93
77235;BME280;66253;50.526;14.974;2024-03-23T13:48:25;98164.08;;;9.70;63.61
77235;BME280;66253;50.526;14.974;2024-03-23T13:50:59;98149.58;;;9.68;64.69
77235;BME280;66253;50.526;14.974;2024-03-23T13:53:28;98157.64;;;9.70;63.58
77235;BME280;66253;50.526;14.974;2024-03-23T13:55:57;98153.77;;;9.74;64.74
77235;BME280;66253;50.526;14.974;2024-03-23T13:58:26;98161.48;;;9.81;64.14
77235;BME280;66253;50.526;14.974;2024-03-23T14:00:57;98154.00;;;9.78;63.34
77235;BME280;66253;50.526;14.974;2024-03-23T14:03:26;98151.10;;;9.73;62.88